Time;durP1;ratioP1;P1;durP2;ratioP2;P2;SDS_P1;SDS_P2;PMS_P1;PMS_P2;Temp;Humidity;BMP_temperature;BMP_pressure;BME280_temperature;BME280_humidity;BME280_pressure;Samples;Min_cycle;Max_cycle;Signal;HPM_P1;HPM_P2
2021/01/18 00:01:47;;;;;;;1.30;1.20;;;8.20;80.90;;;;;;5083661;28;20048;-41
2021/01/18 00:04:13;;;;;;;2.50;1.48;;;8.20;80.90;;;;;;5083415;28;20024;-41
2021/01/18 00:06:40;;;;;;;2.17;1.65;;;8.20;80.90;;;;;;5086581;28;20025;-41
2021/01/18 00:09:06;;;;;;;2.38;1.50;;;8.20;80.90;;;;;;5083474;28;20031;-42
2021/01/18 00:11:32;;;;;;;1.75;1.52;;;8.20;80.80;;;;;;5096218;28;20107;-42
2021/01/18 00:13:59;;;;;;;2.05;1.33;;;8.20;80.70;;;;;;5103649;28;20016;-41
2021/01/18 00:16:25;;;;;;;1.48;1.38;;;8.20;80.70;;;;;;5103329;28;20056;-42
2021/01/18 00:18:51;;;;;;;1.42;1.30;;;8.20;80.80;;;;;;5103502;28;20031;-41
2021/01/18 00:21:17;;;;;;;1.67;1.25;;;8.20;80.80;;;;;;5103573;28;20028;-41
2021/01/18 00:23:43;;;;;;;1.70;1.25;;;8.20;80.70;;;;;;5103451;28;20083;-41
2021/01/18 00:26:10;;;;;;;1.63;1.40;;;8.20;80.60;;;;;;5102204;28;20035;-41
2021/01/18 00:28:36;;;;;;;1.77;1.42;;;8.20;80.50;;;;;;5101921;28;20504;-41
2021/01/18 00:31:03;;;;;;;1.60;1.40;;;8.20;80.40;;;;;;5103435;28;20051;-41
2021/01/18 00:33:29;;;;;;;1.60;1.50;;;8.20;80.30;;;;;;5101155;28;20272;-41
2021/01/18 00:35:56;;;;;;;1.35;1.25;;;8.10;80.20;;;;;;5083079;28;20034;-41
2021/01/18 00:38:22;;;;;;;1.52;1.42;;;8.10;80.00;;;;;;5082949;28;20036;-41
2021/01/18 00:40:48;;;;;;;1.45;1.23;;;8.10;79.90;;;;;;5088443;28;20060;-41
2021/01/18 00:43:14;;;;;;;2.67;1.50;;;8.10;79.80;;;;;;5090980;28;20071;-41
2021/01/18 00:45:40;;;;;;;1.48;1.33;;;8.10;79.90;;;;;;5085829;28;20031;-41
2021/01/18 00:48:07;;;;;;;1.42;1.33;;;8.10;79.80;;;;;;5086847;28;20025;-41
2021/01/18 00:50:33;;;;;;;1.65;1.30;;;8.10;79.90;;;;;;5087077;28;20032;-41
2021/01/18 00:53:00;;;;;;;1.45;1.30;;;8.10;79.70;;;;;;5086844;28;20060;-41
2021/01/18 00:55:26;;;;;;;1.27;1.17;;;8.10;79.50;;;;;;5086761;28;20017;-41
2021/01/18 00:57:52;;;;;;;1.17;1.07;;;8.10;79.40;;;;;;5086634;28;20068;-40
2021/01/18 01:00:23;;;;;;;1.35;1.25;;;8.10;79.40;;;;;;5086815;28;20036;-41
2021/01/18 01:02:50;;;;;;;2.67;1.45;;;8.10;79.50;;;;;;5086761;28;20028;-41
2021/01/18 01:05:23;;;;;;;1.80;1.30;;;8.00;79.40;;;;;;5091560;28;20112;-41
2021/01/18 01:07:53;;;;;;;1.38;1.27;;;8.00;79.30;;;;;;5106773;28;20092;-41
2021/01/18 01:10:27;;;;;;;1.58;1.45;;;8.00;79.40;;;;;;5104140;28;20024;-41
2021/01/18 01:13:03;;;;;;;1.63;1.52;;;8.00;79.40;;;;;;5086455;28;20048;-41
2021/01/18 01:15:29;;;;;;;1.85;1.50;;;8.00;79.50;;;;;;5086381;28;20088;-41
2021/01/18 01:17:55;;;;;;;1.50;1.40;;;8.00;79.40;;;;;;5085034;28;20116;-41
2021/01/18 01:20:22;;;;;;;1.52;1.17;;;8.00;79.50;;;;;;5086564;28;20021;-41
2021/01/18 01:22:48;;;;;;;1.55;1.45;;;8.00;79.60;;;;;;5086359;28;20107;-41
2021/01/18 01:25:16;;;;;;;1.42;1.33;;;7.90;79.40;;;;;;5086222;28;20041;-41
2021/01/18 01:27:43;;;;;;;2.08;1.48;;;7.90;79.50;;;;;;5086123;28;20025;-41
2021/01/18 01:30:11;;;;;;;1.13;1.02;;;7.90;79.50;;;;;;5086337;28;20029;-41
2021/01/18 01:32:41;;;;;;;1.42;1.33;;;7.90;79.50;;;;;;5086107;28;20136;-41
2021/01/18 01:35:08;;;;;;;1.35;1.25;;;7.90;79.60;;;;;;5086204;28;20084;-41
2021/01/18 01:37:35;;;;;;;1.88;1.38;;;7.90;79.60;;;;;;5084445;28;20025;-41
2021/01/18 01:40:01;;;;;;;1.70;1.60;;;7.90;79.60;;;;;;5086063;28;20025;-41
2021/01/18 01:42:27;;;;;;;1.52;1.35;;;7.90;79.70;;;;;;5075744;28;20048;-41
2021/01/18 01:44:53;;;;;;;2.75;1.52;;;7.90;79.60;;;;;;5085634;28;20024;-41
2021/01/18 01:47:29;;;;;;;2.33;1.40;;;7.90;79.70;;;;;;5086000;28;20412;-41
2021/01/18 01:49:56;;;;;;;1.60;1.50;;;7.90;79.70;;;;;;5085832;28;20016;-41
2021/01/18 01:52:23;;;;;;;1.57;1.43;;;7.90;79.80;;;;;;5085354;28;20099;-41
2021/01/18 01:55:00;;;;;;;2.30;1.40;;;7.80;79.70;;;;;;5083431;28;20294;-41
2021/01/18 01:57:28;;;;;;;1.58;1.48;;;7.80;79.70;;;;;;5067682;28;20060;-41
2021/01/18 01:59:54;;;;;;;2.53;1.80;;;7.80;79.80;;;;;;5084084;28;20029;-41
2021/01/18 02:02:20;;;;;;;1.88;1.63;;;7.80;79.80;;;;;;5084183;28;20038;-41
2021/01/18 02:04:47;;;;;;;1.95;1.55;;;7.80;79.80;;;;;;5084300;28;20052;-41
2021/01/18 02:07:39;;;;;;;1.33;1.23;;;7.80;79.80;;;;;;5085558;28;20044;-41
2021/01/18 02:10:06;;;;;;;1.77;1.55;;;7.80;79.80;;;;;;5086407;28;20242;-41
2021/01/18 02:12:32;;;;;;;3.03;1.20;;;7.80;79.80;;;;;;5085475;28;20491;-41
2021/01/18 02:15:20;;;;;;;1.73;1.20;;;7.80;79.90;;;;;;5083995;28;20036;-41
2021/01/18 02:17:58;;;;;;;2.05;1.70;;;7.70;79.90;;;;;;5085397;28;20120;-41
2021/01/18 02:20:42;;;;;;;;;;;7.70;79.90;;;;;;5068186;28;20024;-41
2021/01/18 02:23:34;;;;;;;1.35;1.15;;;7.70;79.80;;;;;;5085162;28;19915;-41
2021/01/18 02:26:42;;;;;;;2.22;1.30;;;7.70;79.90;;;;;;5083906;28;20028;-41
2021/01/18 02:29:35;;;;;;;2.13;1.50;;;7.70;79.90;;;;;;5085601;28;20039;-41
2021/01/18 02:32:37;;;;;;;1.88;1.30;;;7.70;79.80;;;;;;5103817;28;20020;-41
2021/01/18 02:35:09;;;;;;;1.95;1.50;;;7.70;79.90;;;;;;5088767;28;20036;-41
2021/01/18 02:38:12;;;;;;;2.50;1.63;;;7.70;79.90;;;;;;5105172;28;20076;-41
2021/01/18 02:40:47;;;;;;;1.50;1.40;;;7.70;79.90;;;;;;5104146;28;20040;-41
2021/01/18 02:43:15;;;;;;;1.50;1.40;;;7.70;79.90;;;;;;5088610;28;20064;-41
2021/01/18 02:45:41;;;;;;;2.13;1.70;;;7.60;79.90;;;;;;5083463;28;20028;-41
2021/01/18 02:48:08;;;;;;;2.28;1.70;;;7.60;79.90;;;;;;5083411;28;20111;-41
2021/01/18 02:50:34;;;;;;;1.97;1.40;;;7.60;80.00;;;;;;5083195;28;20021;-41
2021/01/18 02:53:00;;;;;;;2.00;1.80;;;7.60;80.00;;;;;;5100136;28;20036;-41
2021/01/18 02:55:26;;;;;;;2.78;1.85;;;7.60;80.00;;;;;;5099842;28;20040;-41
2021/01/18 02:57:52;;;;;;;2.42;1.80;;;7.60;80.00;;;;;;5084370;28;20078;-41
2021/01/18 03:00:31;;;;;;;2.03;1.70;;;7.60;80.00;;;;;;5082677;28;20020;-41
2021/01/18 03:03:14;;;;;;;1.98;1.75;;;7.60;80.00;;;;;;5083245;28;20032;-41
2021/01/18 03:05:59;;;;;;;2.38;1.67;;;7.50;80.00;;;;;;5085840;28;20054;-41
2021/01/18 03:08:39;;;;;;;1.75;1.48;;;7.50;80.00;;;;;;5082953;28;20028;-41
2021/01/18 03:11:10;;;;;;;1.92;1.42;;;7.50;80.00;;;;;;5091770;28;20024;-41
2021/01/18 03:14:02;;;;;;;2.25;1.73;;;7.50;80.10;;;;;;5103144;28;20040;-41
2021/01/18 03:16:31;;;;;;;2.00;1.65;;;7.50;80.10;;;;;;5103364;28;20103;-41
2021/01/18 03:18:59;;;;;;;2.83;1.80;;;7.50;80.10;;;;;;5102802;28;20035;-40
2021/01/18 03:21:25;;;;;;;2.30;1.70;;;7.50;80.10;;;;;;5103149;28;20107;-41
2021/01/18 03:23:51;;;;;;;2.58;2.10;;;7.50;80.10;;;;;;5102907;28;20026;-41
2021/01/18 03:26:21;;;;;;;2.10;1.90;;;7.40;80.00;;;;;;5104293;28;20024;-41
2021/01/18 03:28:47;;;;;;;3.10;1.85;;;7.50;80.20;;;;;;5102699;28;20054;-41
2021/01/18 03:31:13;;;;;;;2.33;1.90;;;7.40;80.10;;;;;;5103811;28;20393;-41
2021/01/18 03:33:39;;;;;;;3.25;1.67;;;7.40;80.10;;;;;;5104027;28;20107;-41
2021/01/18 03:36:06;;;;;;;2.42;1.83;;;7.40;80.10;;;;;;5104302;28;20032;-41
2021/01/18 03:38:32;;;;;;;2.72;2.13;;;7.40;80.20;;;;;;5104148;28;20480;-45
2021/01/18 03:40:59;;;;;;;3.72;2.28;;;7.40;80.20;;;;;;5095781;28;20050;-41
2021/01/18 03:43:25;;;;;;;2.40;1.90;;;7.40;80.20;;;;;;5083750;28;20044;-41
2021/01/18 03:45:51;;;;;;;2.35;1.73;;;7.40;80.20;;;;;;5083642;28;20054;-41
2021/01/18 03:48:17;;;;;;;2.53;1.98;;;7.30;80.10;;;;;;5082511;28;20632;-41
2021/01/18 03:50:43;;;;;;;3.60;1.98;;;7.30;80.10;;;;;;5083668;28;20024;-41
2021/01/18 03:53:09;;;;;;;3.10;2.08;;;7.30;80.20;;;;;;5083394;28;20063;-41
2021/01/18 03:55:36;;;;;;;2.75;2.45;;;7.30;80.20;;;;;;5083412;28;20050;-41
2021/01/18 03:58:02;;;;;;;2.30;2.03;;;7.30;80.10;;;;;;5083453;28;20044;-41
2021/01/18 04:00:29;;;;;;;3.00;2.10;;;7.30;80.30;;;;;;5081907;28;20035;-40
2021/01/18 04:02:56;;;;;;;2.92;2.28;;;7.30;80.20;;;;;;5082214;28;20048;-41
2021/01/18 04:05:23;;;;;;;3.00;2.00;;;7.30;80.30;;;;;;5083389;28;20552;-41
2021/01/18 04:07:49;;;;;;;2.60;1.88;;;7.30;80.30;;;;;;5083513;28;20114;-40
2021/01/18 04:10:18;;;;;;;2.17;1.98;;;7.30;80.30;;;;;;5084928;28;20043;-41
2021/01/18 04:12:46;;;;;;;1.88;1.67;;;7.30;80.30;;;;;;5094681;28;20036;-42
2021/01/18 04:15:12;;;;;;;;;;;7.20;80.20;;;;;;5083688;28;20054;-41
2021/01/18 04:17:45;;;;;;;2.25;1.88;;;7.20;80.30;;;;;;5082998;28;19918;-41
2021/01/18 04:20:12;;;;;;;3.10;2.10;;;7.20;80.20;;;;;;5083257;28;20588;-41
2021/01/18 04:22:50;;;;;;;2.20;1.63;;;7.20;80.30;;;;;;5083216;28;20070;-41
2021/01/18 04:25:16;;;;;;;3.03;1.98;;;7.20;80.30;;;;;;5083149;28;20033;-40
2021/01/18 04:27:52;;;;;;;2.42;1.92;;;7.20;80.30;;;;;;5083199;28;20033;-41
2021/01/18 04:30:19;;;;;;;3.20;2.28;;;7.20;80.30;;;;;;5065439;28;20029;-41
2021/01/18 04:32:59;;;;;;;2.33;2.08;;;7.20;80.30;;;;;;5083201;28;20036;-40
2021/01/18 04:35:26;;;;;;;3.03;2.22;;;7.20;80.40;;;;;;5083303;28;20020;-41
2021/01/18 04:37:52;;;;;;;3.40;2.28;;;7.20;80.30;;;;;;5087120;28;20577;-41
2021/01/18 04:40:22;;;;;;;3.03;2.28;;;7.20;80.30;;;;;;5100463;28;20028;-41
2021/01/18 04:42:49;;;;;;;2.83;2.30;;;7.10;80.30;;;;;;5083046;28;20489;-41
2021/01/18 04:45:16;;;;;;;3.10;2.33;;;7.10;80.30;;;;;;5083237;28;20024;-41
2021/01/18 04:47:45;;;;;;;2.85;2.40;;;7.10;80.40;;;;;;5081947;28;20095;-41
2021/01/18 04:50:18;;;;;;;2.78;2.22;;;7.10;80.30;;;;;;5081255;28;20082;-41
2021/01/18 04:52:52;;;;;;;2.50;2.10;;;7.10;80.30;;;;;;5081544;28;20033;-41
2021/01/18 04:55:43;;;;;;;3.08;2.17;;;7.10;80.30;;;;;;5082856;28;20043;-41
2021/01/18 04:58:17;;;;;;;2.58;2.25;;;7.10;80.40;;;;;;5081563;28;20048;-40
2021/01/18 05:00:50;;;;;;;2.65;2.22;;;7.10;80.30;;;;;;5097170;28;20024;-41
2021/01/18 05:03:29;;;;;;;2.90;2.30;;;7.10;80.30;;;;;;5103218;28;20073;-41
2021/01/18 05:06:12;;;;;;;3.20;2.25;;;7.00;80.30;;;;;;5103047;28;20023;-41
2021/01/18 05:08:48;;;;;;;2.80;2.25;;;7.00;80.30;;;;;;5103384;28;20028;-41
2021/01/18 05:11:15;;;;;;;2.80;2.00;;;7.00;80.30;;;;;;5100470;28;20050;-41
2021/01/18 05:13:41;;;;;;;2.75;2.17;;;7.00;80.30;;;;;;5101772;28;20028;-41
2021/01/18 05:16:07;;;;;;;2.23;1.73;;;7.00;80.30;;;;;;5101683;28;20052;-40
2021/01/18 05:18:34;;;;;;;3.10;2.42;;;7.00;80.30;;;;;;5103089;28;20264;-41
2021/01/18 05:21:05;;;;;;;3.97;2.70;;;7.00;80.40;;;;;;5102767;28;20020;-41
2021/01/18 05:23:32;;;;;;;2.70;2.20;;;7.00;80.30;;;;;;5101617;28;20028;-41
2021/01/18 05:26:20;;;;;;;2.63;1.98;;;7.00;80.40;;;;;;5102868;28;20040;-40
2021/01/18 05:28:51;;;;;;;3.00;2.47;;;7.00;80.40;;;;;;5104356;28;20016;-41
2021/01/18 05:31:27;;;;;;;2.72;2.22;;;7.00;80.40;;;;;;5106084;28;20077;-41
2021/01/18 05:33:59;;;;;;;2.67;2.22;;;7.00;80.80;;;;;;5106528;28;20024;-41
2021/01/18 05:36:35;;;;;;;2.78;2.38;;;7.00;80.40;;;;;;5106522;28;20046;-40
2021/01/18 05:39:24;;;;;;;2.88;2.25;;;7.00;81.20;;;;;;5106361;28;20111;-42
2021/01/18 05:41:51;;;;;;;3.97;2.58;;;7.00;80.50;;;;;;5100707;28;20025;-41
2021/01/18 05:44:18;;;;;;;3.20;2.53;;;7.00;80.50;;;;;;5085984;28;20028;-41
2021/01/18 05:46:45;;;;;;;3.30;2.33;;;7.00;81.20;;;;;;5085758;28;20028;-41
2021/01/18 05:49:15;;;;;;;3.15;2.33;;;7.00;80.60;;;;;;5086005;28;20253;-41
2021/01/18 05:51:41;;;;;;;3.05;2.22;;;6.90;80.50;;;;;;5085753;28;20092;-41
2021/01/18 05:54:11;;;;;;;2.50;2.00;;;7.00;80.60;;;;;;5085730;28;20094;-41
2021/01/18 05:56:41;;;;;;;3.10;2.50;;;6.90;80.60;;;;;;5085506;28;20032;-41
2021/01/18 05:59:23;;;;;;;3.13;2.50;;;6.90;80.60;;;;;;5085657;28;20036;-40
2021/01/18 06:01:51;;;;;;;2.58;1.98;;;6.90;80.60;;;;;;5085224;28;20092;-40
2021/01/18 06:04:18;;;;;;;2.63;2.28;;;6.90;80.60;;;;;;5086789;28;20033;-40
2021/01/18 06:07:05;;;;;;;3.33;2.20;;;6.90;80.60;;;;;;5087534;28;20024;-41
2021/01/18 06:09:47;;;;;;;2.95;2.30;;;6.90;80.60;;;;;;5084958;28;20038;-41
2021/01/18 06:12:26;;;;;;;3.50;2.28;;;6.90;81.30;;;;;;5085802;28;20036;-41
2021/01/18 06:15:22;;;;;;;2.92;2.38;;;6.90;80.70;;;;;;5085375;28;20036;-40
2021/01/18 06:17:50;;;;;;;2.78;2.05;;;6.90;80.70;;;;;;5083883;28;20102;-41
2021/01/18 06:20:21;;;;;;;2.70;2.20;;;6.90;80.80;;;;;;5083783;28;20032;-41
2021/01/18 06:22:57;;;;;;;2.70;2.28;;;6.90;80.70;;;;;;5085102;28;20201;-41
2021/01/18 06:25:24;;;;;;;2.65;2.33;;;6.90;80.70;;;;;;5083900;28;20472;-40
2021/01/18 06:27:51;;;;;;;3.72;2.30;;;6.90;80.80;;;;;;5085109;28;20111;-41
2021/01/18 06:30:31;;;;;;;3.33;2.58;;;6.90;80.80;;;;;;5089216;28;20033;-41
2021/01/18 06:32:58;;;;;;;3.30;2.40;;;6.90;80.80;;;;;;5092337;28;20050;-41
2021/01/18 06:35:26;;;;;;;2.88;2.30;;;6.90;80.80;;;;;;5084917;28;20025;-41
2021/01/18 06:38:00;;;;;;;2.30;1.90;;;6.80;80.70;;;;;;5084963;28;20029;-41
2021/01/18 06:40:33;;;;;;;3.03;2.35;;;6.80;80.80;;;;;;5087827;28;20036;-41
2021/01/18 06:42:59;;;;;;;2.55;2.15;;;6.80;80.70;;;;;;5090436;28;20024;-40
2021/01/18 06:45:33;;;;;;;2.60;2.30;;;6.80;80.70;;;;;;5084834;28;20035;-41
2021/01/18 06:48:00;;;;;;;2.78;2.30;;;6.80;80.70;;;;;;5084774;28;20048;-40
2021/01/18 06:50:29;;;;;;;2.60;2.08;;;6.80;80.80;;;;;;5084527;28;20055;-41
2021/01/18 06:52:55;;;;;;;2.88;2.47;;;6.80;80.80;;;;;;5087250;28;20043;-41
2021/01/18 06:55:25;;;;;;;2.60;1.98;;;6.80;80.80;;;;;;5084440;28;20031;-40
2021/01/18 06:57:51;;;;;;;3.25;2.55;;;6.80;80.80;;;;;;5084337;28;20060;-41
2021/01/18 07:00:17;;;;;;;3.15;2.30;;;6.80;80.80;;;;;;5084283;28;20046;-40
2021/01/18 07:03:07;;;;;;;2.60;2.30;;;6.70;80.80;;;;;;5084183;28;20473;-41
2021/01/18 07:05:37;;;;;;;3.20;2.38;;;6.70;80.80;;;;;;5083233;28;20053;-41
2021/01/18 07:08:19;;;;;;;5.47;2.50;;;6.70;80.80;;;;;;5084266;28;20047;-40
2021/01/18 07:10:47;;;;;;;3.55;2.50;;;6.70;80.80;;;;;;5084870;28;20118;-41
2021/01/18 07:13:13;;;;;;;3.58;2.28;;;6.70;80.90;;;;;;5083654;28;20062;-41
2021/01/18 07:15:41;;;;;;;3.33;2.50;;;6.70;80.90;;;;;;5084263;28;20029;-40
2021/01/18 07:18:11;;;;;;;2.80;2.30;;;6.70;80.80;;;;;;5084209;28;20544;-40
2021/01/18 07:20:44;;;;;;;3.30;1.98;;;6.70;80.80;;;;;;5083964;28;20053;-41
2021/01/18 07:23:26;;;;;;;3.55;2.70;;;6.70;80.90;;;;;;5083838;28;20020;-41
2021/01/18 07:26:07;;;;;;;3.50;2.63;;;6.70;80.80;;;;;;5083955;28;20036;-41
2021/01/18 07:28:34;;;;;;;2.58;2.13;;;6.70;80.90;;;;;;5082584;28;20024;-40
2021/01/18 07:31:00;;;;;;;1.80;1.63;;;6.60;80.80;;;;;;5083790;28;20028;-41
2021/01/18 07:33:26;;;;;;;3.40;2.47;;;6.60;80.80;;;;;;5083581;28;20117;-40
2021/01/18 07:35:53;;;;;;;3.63;2.22;;;6.60;80.90;;;;;;5082392;28;20021;-40
2021/01/18 07:38:20;;;;;;;3.10;2.27;;;6.60;80.80;;;;;;5083832;28;20081;-41
2021/01/18 07:41:08;;;;;;;2.70;2.22;;;6.60;80.80;;;;;;5083514;28;20508;-41
2021/01/18 07:43:35;;;;;;;2.95;2.17;;;6.60;80.90;;;;;;5083249;28;20017;-40
2021/01/18 07:46:26;;;;;;;2.83;2.38;;;6.60;80.90;;;;;;5083712;28;20051;-41
2021/01/18 07:48:53;;;;;;;2.45;2.20;;;6.60;80.90;;;;;;5083677;28;20594;-41
2021/01/18 07:51:20;;;;;;;2.58;2.25;;;6.60;80.90;;;;;;5082694;28;20025;-41
2021/01/18 07:53:46;;;;;;;2.90;2.28;;;6.60;80.90;;;;;;5083501;28;20028;-40
2021/01/18 07:56:23;;;;;;;5.03;2.40;;;6.60;80.90;;;;;;5083650;28;20071;-41
2021/01/18 07:59:02;;;;;;;3.60;2.40;;;6.60;80.90;;;;;;5066687;28;20040;-40
2021/01/18 08:01:33;;;;;;;2.92;2.20;;;6.50;80.90;;;;;;5083570;28;20102;-40
2021/01/18 08:04:21;;;;;;;5.07;2.40;;;6.50;80.80;;;;;;5083238;28;20024;-41
2021/01/18 08:07:09;;;;;;;3.45;2.30;;;6.50;80.90;;;;;;5083342;28;20037;-40
2021/01/18 08:09:36;;;;;;;3.30;2.42;;;6.50;80.90;;;;;;5083183;28;20033;-41
2021/01/18 08:12:34;;;;;;;2.85;2.45;;;6.50;80.90;;;;;;5100988;28;20058;-40
2021/01/18 08:15:09;;;;;;;2.50;2.30;;;6.50;80.90;;;;;;5103487;28;20020;-40
2021/01/18 08:17:36;;;;;;;2.80;2.05;;;6.50;80.90;;;;;;5102083;28;20038;-41
2021/01/18 08:20:16;;;;;;;2.47;2.22;;;6.50;80.90;;;;;;5103657;28;20020;-41
2021/01/18 08:22:42;;;;;;;3.15;2.38;;;6.50;80.90;;;;;;5103255;28;20039;-41
2021/01/18 08:25:09;;;;;;;3.72;2.00;;;6.40;80.90;;;;;;5103392;28;20024;-41
2021/01/18 08:28:05;;;;;;;3.15;2.35;;;6.40;80.90;;;;;;5092542;28;20029;-42
2021/01/18 08:30:33;;;;;;;4.05;2.25;;;6.50;81.00;;;;;;5040378;28;20033;-41
2021/01/18 08:33:09;;;;;;;2.20;1.90;;;6.50;81.00;;;;;;5023819;28;20224;-41
2021/01/18 08:35:57;;;;;;;2.60;2.30;;;6.50;80.90;;;;;;5040600;28;20033;-41
2021/01/18 08:38:23;;;;;;;3.83;1.98;;;6.40;81.00;;;;;;5040563;28;20034;-41
2021/01/18 08:40:50;;;;;;;2.53;2.20;;;6.40;80.90;;;;;;5039785;28;20025;-40
2021/01/18 08:43:18;;;;;;;2.47;2.15;;;6.40;81.00;;;;;;5023590;28;20596;-41
2021/01/18 08:45:50;;;;;;;2.67;1.88;;;6.40;81.00;;;;;;5024092;28;20559;-41
2021/01/18 08:48:21;;;;;;;3.20;2.78;;;6.40;81.00;;;;;;5040512;28;20549;-41
2021/01/18 08:50:52;;;;;;;3.45;2.28;;;6.40;81.00;;;;;;5040600;28;20037;-40
2021/01/18 08:53:34;;;;;;;2.47;1.77;;;6.30;80.90;;;;;;5039948;28;20046;-40
2021/01/18 08:56:01;;;;;;;2.58;2.17;;;6.40;81.00;;;;;;5023506;28;20036;-40
2021/01/18 08:58:45;;;;;;;2.58;2.10;;;6.40;81.00;;;;;;5020039;28;20057;-40
2021/01/18 09:01:19;;;;;;;2.60;2.10;;;6.40;81.00;;;;;;5020573;28;20034;-41
2021/01/18 09:03:45;;;;;;;4.80;2.55;;;6.30;81.00;;;;;;5023364;28;20058;-41
2021/01/18 09:06:12;;;;;;;1.90;1.70;;;6.30;81.00;;;;;;5033049;28;20059;-41
2021/01/18 09:08:41;;;;;;;2.42;2.08;;;6.30;81.10;;;;;;5065391;28;20040;-41
2021/01/18 09:11:09;;;;;;;2.60;1.90;;;6.30;81.00;;;;;;5076706;28;20119;-40
2021/01/18 09:13:36;;;;;;;2.38;2.13;;;6.30;81.00;;;;;;5085966;28;20048;-40
2021/01/18 09:16:06;;;;;;;;;;;6.30;81.00;;;;;;5086917;28;20028;-40
2021/01/18 09:18:32;;;;;;;2.42;2.00;;;6.30;81.10;;;;;;5086491;28;19915;-41
2021/01/18 09:20:59;;;;;;;3.38;1.95;;;6.30;81.10;;;;;;5085104;28;20029;-41
2021/01/18 09:23:26;;;;;;;2.60;2.10;;;6.30;81.10;;;;;;5086043;28;20124;-41
2021/01/18 09:26:21;;;;;;;2.25;1.75;;;6.30;81.80;;;;;;5086239;28;20020;-41
2021/01/18 09:28:53;;;;;;;3.08;1.95;;;6.20;81.10;;;;;;5072070;28;20033;-40
2021/01/18 09:31:20;;;;;;;3.00;2.15;;;6.30;81.10;;;;;;5086115;28;20085;-41
2021/01/18 09:33:47;;;;;;;2.25;2.00;;;6.30;81.10;;;;;;5086030;28;20036;-40
2021/01/18 09:36:18;;;;;;;2.80;2.22;;;6.20;81.10;;;;;;5086241;28;20021;-41
2021/01/18 09:38:45;;;;;;;3.00;2.20;;;6.20;81.10;;;;;;5086239;28;20024;-41
2021/01/18 09:41:11;;;;;;;2.95;2.10;;;6.20;81.10;;;;;;5094154;28;20024;-41
2021/01/18 09:43:37;;;;;;;2.47;2.10;;;6.20;81.10;;;;;;5086174;28;20021;-41
2021/01/18 09:46:04;;;;;;;2.03;1.83;;;6.20;81.10;;;;;;5085926;28;20032;-41
2021/01/18 09:48:30;;;;;;;2.88;2.13;;;6.20;81.10;;;;;;5086026;28;20095;-41
2021/01/18 09:51:05;;;;;;;2.60;2.33;;;6.20;81.20;;;;;;5085913;28;20032;-40
2021/01/18 09:53:31;;;;;;;2.90;1.83;;;6.20;81.10;;;;;;5085292;28;20378;-40
2021/01/18 09:56:02;;;;;;;2.60;2.00;;;6.10;81.10;;;;;;5085708;28;20025;-40
2021/01/18 09:58:51;;;;;;;3.67;2.38;;;6.20;81.20;;;;;;5085445;28;20052;-41
2021/01/18 10:01:18;;;;;;;2.30;1.80;;;6.20;81.20;;;;;;5070881;28;20020;-41
2021/01/18 10:03:52;;;;;;;2.95;2.05;;;6.10;81.10;;;;;;5084389;28;20021;-41
2021/01/18 10:06:27;;;;;;;2.13;1.77;;;6.10;81.10;;;;;;5085742;28;20028;-40
2021/01/18 10:09:02;;;;;;;2.40;1.85;;;6.10;81.10;;;;;;5085501;28;20569;-41
2021/01/18 10:11:42;;;;;;;2.00;1.80;;;6.10;81.20;;;;;;5097367;28;20044;-40
2021/01/18 10:14:23;;;;;;;3.15;1.90;;;6.10;81.20;;;;;;5104482;28;20032;-40
2021/01/18 10:16:58;;;;;;;2.17;1.95;;;6.10;81.20;;;;;;5105519;28;20020;-40
2021/01/18 10:19:24;;;;;;;2.47;2.00;;;6.10;81.20;;;;;;5105690;28;20025;-41
2021/01/18 10:21:51;;;;;;;2.97;2.35;;;6.10;81.20;;;;;;5105645;28;20496;-41
2021/01/18 10:24:27;;;;;;;2.45;2.08;;;6.10;81.30;;;;;;5103905;28;20024;-41
2021/01/18 10:27:06;;;;;;;2.00;1.80;;;6.10;81.30;;;;;;5105546;28;20020;-41
2021/01/18 10:29:33;;;;;;;2.60;1.92;;;6.00;81.20;;;;;;5105237;28;20818;-40
2021/01/18 10:31:59;;;;;;;2.10;1.90;;;6.00;81.20;;;;;;5105286;28;20036;-41
2021/01/18 10:34:27;;;;;;;3.42;2.00;;;6.00;81.30;;;;;;5105006;28;20028;-40
2021/01/18 10:36:54;;;;;;;1.90;1.80;;;6.00;81.40;;;;;;5091394;28;20028;-40
2021/01/18 10:39:30;;;;;;;;;;;6.00;81.30;;;;;;5085492;28;20024;-40
2021/01/18 10:42:04;;;;;;;2.05;1.75;;;6.00;81.30;;;;;;5094962;28;20000;-41
2021/01/18 10:44:30;;;;;;;2.30;1.70;;;6.00;81.30;;;;;;5100572;28;20048;-41
2021/01/18 10:46:57;;;;;;;2.60;2.03;;;6.00;81.40;;;;;;5104831;28;20027;-40
2021/01/18 10:49:29;;;;;;;2.13;1.92;;;6.00;81.40;;;;;;5105113;28;20035;-41
2021/01/18 10:52:02;;;;;;;2.10;1.90;;;6.00;81.40;;;;;;5086143;28;20034;-41
2021/01/18 10:54:29;;;;;;;1.88;1.65;;;6.00;81.50;;;;;;5084345;28;20020;-40
2021/01/18 10:56:56;;;;;;;2.38;1.80;;;6.00;81.40;;;;;;5083009;28;21386;-41
2021/01/18 10:59:22;;;;;;;2.17;1.67;;;6.00;81.50;;;;;;5084585;28;20041;-40
2021/01/18 11:02:04;;;;;;;3.92;1.98;;;5.90;81.40;;;;;;5084337;28;20024;-41
2021/01/18 11:04:32;;;;;;;2.22;1.85;;;5.90;81.40;;;;;;5084174;28;20032;-40
2021/01/18 11:06:58;;;;;;;2.58;1.95;;;5.90;81.40;;;;;;5084330;28;20021;-41
2021/01/18 11:09:34;;;;;;;2.42;1.80;;;5.90;81.40;;;;;;5082859;28;20025;-40
2021/01/18 11:12:01;;;;;;;3.80;2.10;;;5.90;81.50;;;;;;5100695;28;20036;-41
2021/01/18 11:14:28;;;;;;;1.80;1.65;;;5.90;81.40;;;;;;5104484;28;20038;-41
2021/01/18 11:17:02;;;;;;;2.53;1.70;;;5.90;81.50;;;;;;5104308;28;20032;-40
2021/01/18 11:19:28;;;;;;;2.85;1.95;;;5.90;81.50;;;;;;5104620;28;20133;-40
2021/01/18 11:21:54;;;;;;;2.45;2.00;;;5.90;81.50;;;;;;5104347;28;20020;-41
2021/01/18 11:24:21;;;;;;;2.60;1.90;;;5.90;81.50;;;;;;5104361;28;20042;-40
2021/01/18 11:26:50;;;;;;;1.40;1.10;;;5.90;81.50;;;;;;5103086;28;20031;-40
2021/01/18 11:29:17;;;;;;;2.47;2.00;;;5.90;81.50;;;;;;5104136;28;20111;-41
2021/01/18 11:31:44;;;;;;;2.70;1.88;;;5.90;81.50;;;;;;5104030;28;20095;-41
2021/01/18 11:34:10;;;;;;;2.33;1.83;;;5.90;81.50;;;;;;5104227;28;20054;-41
2021/01/18 11:36:38;;;;;;;2.40;1.83;;;5.80;81.50;;;;;;5102574;28;20077;-40
2021/01/18 11:39:04;;;;;;;1.77;1.67;;;5.80;81.50;;;;;;5104044;28;20036;-40
2021/01/18 11:41:32;;;;;;;2.20;2.00;;;5.80;81.50;;;;;;5091196;28;20025;-40
2021/01/18 11:43:58;;;;;;;3.22;1.95;;;5.80;81.50;;;;;;5083625;28;20044;-40
2021/01/18 11:46:24;;;;;;;2.15;1.95;;;5.80;81.50;;;;;;5083405;28;20020;-40
2021/01/18 11:48:51;;;;;;;2.05;1.67;;;5.80;81.50;;;;;;5083566;28;20054;-40
2021/01/18 11:51:17;;;;;;;2.13;1.92;;;5.80;81.60;;;;;;5083500;28;20036;-40
2021/01/18 11:53:43;;;;;;;2.88;2.10;;;5.80;81.50;;;;;;5083387;28;20037;-40
2021/01/18 11:56:09;;;;;;;2.10;1.70;;;5.80;81.60;;;;;;5083322;28;20043;-41
2021/01/18 11:58:35;;;;;;;2.20;1.85;;;5.80;81.60;;;;;;5083481;28;20052;-40
2021/01/18 12:01:01;;;;;;;2.40;1.83;;;5.80;81.60;;;;;;5083427;28;20025;-40
2021/01/18 12:03:28;;;;;;;1.80;1.70;;;5.80;81.60;;;;;;5083440;28;20028;-41
2021/01/18 12:05:54;;;;;;;2.23;1.60;;;5.70;81.60;;;;;;5084940;28;20047;-40
2021/01/18 12:08:20;;;;;;;2.38;2.00;;;5.70;81.60;;;;;;5082353;28;20124;-41
2021/01/18 12:10:46;;;;;;;2.55;2.20;;;5.70;81.60;;;;;;5089359;28;20024;-41
2021/01/18 12:13:12;;;;;;;2.10;1.80;;;5.70;81.60;;;;;;5103563;28;20036;-40
2021/01/18 12:15:39;;;;;;;2.00;1.70;;;5.70;81.60;;;;;;5103475;28;20031;-40
2021/01/18 12:18:06;;;;;;;2.25;1.80;;;5.70;81.60;;;;;;5102074;28;20096;-40
2021/01/18 12:20:32;;;;;;;3.00;1.80;;;5.70;81.60;;;;;;5103626;28;20022;-40
2021/01/18 12:22:58;;;;;;;2.45;1.92;;;5.70;81.60;;;;;;5103580;28;20055;-40
2021/01/18 12:25:24;;;;;;;2.22;2.03;;;5.70;81.60;;;;;;5103382;28;20032;-40
2021/01/18 12:27:52;;;;;;;5.10;1.93;;;5.70;81.70;;;;;;5090393;28;20036;-41
2021/01/18 12:30:18;;;;;;;3.28;1.90;;;5.70;81.70;;;;;;5083061;28;20257;-40
2021/01/18 12:32:44;;;;;;;2.22;1.73;;;5.70;81.70;;;;;;5088942;28;20036;-40
2021/01/18 12:35:12;;;;;;;2.25;2.00;;;5.70;81.70;;;;;;5103607;28;20024;-40
2021/01/18 12:37:38;;;;;;;2.80;2.15;;;5.70;81.70;;;;;;5103522;28;20028;-40
2021/01/18 12:40:06;;;;;;;2.40;1.98;;;5.60;81.70;;;;;;5106744;28;20032;-40
2021/01/18 12:42:32;;;;;;;2.15;1.77;;;5.60;81.70;;;;;;5098071;28;20127;-40
2021/01/18 12:44:58;;;;;;;2.15;1.90;;;5.60;81.70;;;;;;5107344;28;20039;-40
2021/01/18 12:47:24;;;;;;;2.88;2.10;;;5.60;81.80;;;;;;5107010;28;20105;-40
2021/01/18 12:49:50;;;;;;;2.20;1.67;;;5.60;81.70;;;;;;5107563;28;20043;-40
2021/01/18 12:52:16;;;;;;;2.00;1.80;;;5.60;81.80;;;;;;5105846;28;20028;-40
2021/01/18 12:54:46;;;;;;;2.08;1.80;;;5.60;81.80;;;;;;5088791;28;20108;-40
2021/01/18 12:57:12;;;;;;;1.75;1.65;;;5.60;81.80;;;;;;5086338;28;20037;-40
2021/01/18 12:59:39;;;;;;;2.13;1.92;;;5.60;81.80;;;;;;5086765;28;20028;-40
2021/01/18 13:02:06;;;;;;;3.20;1.98;;;5.60;81.80;;;;;;5086488;28;20028;-40
2021/01/18 13:04:33;;;;;;;2.55;1.80;;;5.60;81.80;;;;;;5086112;28;20044;-40
2021/01/18 13:06:59;;;;;;;2.10;1.90;;;5.60;81.80;;;;;;5085012;28;20021;-40
2021/01/18 13:09:25;;;;;;;2.75;1.70;;;5.50;81.80;;;;;;5085325;28;20032;-40
2021/01/18 13:11:53;;;;;;;3.03;1.98;;;5.60;81.90;;;;;;5101906;28;20044;-41
2021/01/18 13:14:20;;;;;;;3.03;1.83;;;5.50;81.80;;;;;;5106775;28;20028;-40
2021/01/18 13:16:47;;;;;;;2.53;1.98;;;5.50;81.80;;;;;;5106382;28;20032;-40